Terminal Aerodrome Forecast
Issued by NWS Cleveland, OH

Home | Current Version | Previous Version | Graphics & Text | Print | Product List | Glossary On
Versions: 1 2 3 4 5 6 7 8 9 10 11 12 13 14 15 16 17 18 19 20 21 22 23 24 25
000
FTUS41 KCLE 130700 AAA
TAFYNG
TAF AMD
KYNG 130745Z 1308/1406 09007KT P6SM OVC028
     FM131000 25005KT 5SM BR OVC028
     FM131200 27010KT P6SM VCSH BKN022 OVC030
     FM131500 27010G20KT P6SM BKN035
     FM132000 32008KT P6SM BKN035
     FM132300 34005KT P6SM BKN050=

USA.gov is the U.S. government's official web portal to all federal, state and local government web resources and services.